createdAt,value
2019-02-02T00:04:52.019Z,27.50
2019-02-02T00:15:06.921Z,25.92
2019-02-02T00:20:14.128Z,29.57
2019-02-02T00:30:30.980Z,26.80
2019-02-02T00:35:38.382Z,31.25
2019-02-02T00:40:45.787Z,30.68
2019-02-02T00:45:59.585Z,32.27
2019-02-02T00:51:18.871Z,32.20
2019-02-02T00:56:33.140Z,31.77
2019-02-02T01:02:00.782Z,32.50
2019-02-02T01:07:10.936Z,31.23
2019-02-02T01:12:27.773Z,32.07
2019-02-02T01:17:39.396Z,32.17
2019-02-02T01:28:04.494Z,32.97
2019-02-02T01:33:03.905Z,34.80
2019-02-02T01:38:11.470Z,31.63
2019-02-02T01:43:18.741Z,35.60
2019-02-02T01:53:33.046Z,40.27
2019-02-02T02:03:47.557Z,44.03
2019-02-02T02:08:54.140Z,40.37
2019-02-02T02:19:08.621Z,44.50
2019-02-02T02:24:15.941Z,34.53
2019-02-02T02:29:23.156Z,43.03
2019-02-02T02:34:30.138Z,38.63
2019-02-02T02:39:37.426Z,43.97
2019-02-02T02:44:44.736Z,40.80
2019-02-02T02:49:51.935Z,47.70
2019-02-02T02:54:59.149Z,42.77
2019-02-02T03:00:06.407Z,46.40
2019-02-02T03:05:13.729Z,41.80
2019-02-02T03:10:20.935Z,46.02
2019-02-02T03:20:35.388Z,42.73
2019-02-02T03:25:42.830Z,54.10
2019-02-02T03:31:01.396Z,47.27
2019-02-02T03:36:08.910Z,51.30
2019-02-02T03:46:24.041Z,45.87
2019-02-02T03:51:32.389Z,47.58
2019-02-02T03:56:39.863Z,40.85
2019-02-02T04:22:15.968Z,46.47
2019-02-02T04:27:23.384Z,46.97
2019-02-02T04:37:38.371Z,38.57
2019-02-02T04:42:45.885Z,33.03
2019-02-02T04:47:53.083Z,33.78
2019-02-02T05:03:14.983Z,33.28
2019-02-02T05:08:22.389Z,40.83
2019-02-02T05:18:36.894Z,38.60
2019-02-02T05:28:51.392Z,35.40
2019-02-02T05:33:58.694Z,36.75
2019-02-02T05:39:05.990Z,38.30
2019-02-02T05:44:13.508Z,41.87
2019-02-02T05:49:20.801Z,39.58
2019-02-02T05:59:35.389Z,38.25
2019-02-02T06:09:49.925Z,38.30
2019-02-02T06:14:57.129Z,35.07
2019-02-02T06:20:04.389Z,41.30
2019-02-02T06:25:11.769Z,37.90
2019-02-02T06:30:19.019Z,40.07
2019-02-02T06:35:26.424Z,39.60
2019-02-02T06:40:34.145Z,37.87
2019-02-02T06:45:41.385Z,35.53
2019-02-02T06:50:48.738Z,46.25
2019-02-02T06:55:55.941Z,53.53
2019-02-02T07:01:03.148Z,51.77
2019-02-02T07:06:10.647Z,51.55
2019-02-02T07:16:25.276Z,45.37
2019-02-02T07:21:32.550Z,43.97
2019-02-02T07:26:39.849Z,49.10
2019-02-02T07:31:47.242Z,50.50
2019-02-02T07:36:54.575Z,47.30
2019-02-02T07:42:01.560Z,47.83
2019-02-02T07:47:09.245Z,42.37
2019-02-02T07:52:16.881Z,41.27
2019-02-02T07:57:24.079Z,44.23
2019-02-02T08:02:31.445Z,44.30
2019-02-02T08:07:38.675Z,52.33
2019-02-02T08:12:46.908Z,45.83
2019-02-02T08:17:54.383Z,44.88
2019-02-02T08:23:01.706Z,45.50
2019-02-02T08:28:09.006Z,45.80
2019-02-02T08:33:16.381Z,44.73
2019-02-02T08:43:31.030Z,42.63
2019-02-02T08:48:38.378Z,43.03
2019-02-02T08:53:45.725Z,43.95
2019-02-02T08:58:52.924Z,40.97
2019-02-02T09:04:00.236Z,52.70
2019-02-02T09:14:14.828Z,42.73
2019-02-02T09:19:22.036Z,42.77
2019-02-02T09:24:28.922Z,47.10
2019-02-02T09:34:55.543Z,40.10
2019-02-02T09:40:03.009Z,41.60
2019-02-02T09:45:10.383Z,43.97
2019-02-02T09:55:24.826Z,38.83
2019-02-02T10:00:32.509Z,43.03
2019-02-02T10:10:47.096Z,39.83
2019-02-02T10:15:54.378Z,42.53
2019-02-02T10:21:04.096Z,39.40
2019-02-02T10:31:18.702Z,40.55
2019-02-02T10:36:25.898Z,36.90
2019-02-02T10:41:33.373Z,39.83
2019-02-02T10:51:48.822Z,40.38
2019-02-02T10:56:57.370Z,40.20
2019-02-02T11:02:06.019Z,43.83
2019-02-02T11:07:14.043Z,41.77
2019-02-02T11:12:21.688Z,42.90
2019-02-02T11:17:29.114Z,44.13
2019-02-02T11:22:36.543Z,47.83
2019-02-02T11:27:43.445Z,45.25
2019-02-02T11:32:51.953Z,50.10
2019-02-02T11:37:59.372Z,47.27
2019-02-02T11:43:06.762Z,50.00
2019-02-02T11:53:22.456Z,49.90
2019-02-02T11:58:29.796Z,50.85
2019-02-02T12:03:36.990Z,54.10
2019-02-02T12:08:44.494Z,50.73
2019-02-02T12:18:59.111Z,50.07
2019-02-02T12:24:15.890Z,56.20
2019-02-02T12:29:15.385Z,54.90
2019-02-02T12:44:36.951Z,56.75
2019-02-02T12:49:44.384Z,55.80
2019-02-02T12:54:51.754Z,52.40
2019-02-02T12:59:58.946Z,59.53
2019-02-02T13:05:06.371Z,55.73
2019-02-02T13:15:21.474Z,50.70
2019-02-02T13:25:35.967Z,68.70
2019-02-02T13:30:43.379Z,63.13
2019-02-02T13:46:05.386Z,66.97
2019-02-02T13:51:12.703Z,66.30
2019-02-02T13:56:19.995Z,57.57
2019-02-02T14:01:27.495Z,55.47
2019-02-02T14:11:42.101Z,53.30
2019-02-02T14:16:49.405Z,54.03
2019-02-02T14:21:57.024Z,52.95
2019-02-02T14:32:16.190Z,51.53
2019-02-02T14:37:23.950Z,50.07
2019-02-02T14:47:38.390Z,46.03
2019-02-02T14:52:45.647Z,46.90
2019-02-02T14:57:52.948Z,52.23
2019-02-02T15:03:03.203Z,45.23
2019-02-02T15:08:09.927Z,42.15
2019-02-02T15:13:17.620Z,49.43
2019-02-02T15:18:24.910Z,35.83
2019-02-02T15:23:32.378Z,37.60
2019-02-02T15:28:39.719Z,37.47
2019-02-02T15:39:10.651Z,40.17
2019-02-02T15:44:18.452Z,42.33
2019-02-02T15:49:26.374Z,44.17
2019-02-02T15:54:33.737Z,43.50
2019-02-02T16:04:47.384Z,65.50
2019-02-02T16:20:08.921Z,45.77
2019-02-02T16:25:16.660Z,46.20
2019-02-02T16:30:24.391Z,48.03
2019-02-02T16:40:38.855Z,45.30
2019-02-02T16:45:46.045Z,46.90
2019-02-02T16:50:56.734Z,48.67
2019-02-02T16:56:02.900Z,51.23
2019-02-02T17:01:10.711Z,58.00
2019-02-02T17:06:18.380Z,50.83
2019-02-02T17:11:25.723Z,54.03
2019-02-02T17:16:33.033Z,51.23
2019-02-02T17:21:40.663Z,47.10
2019-02-02T17:31:54.938Z,51.53
2019-02-02T17:37:04.852Z,53.30
2019-02-02T17:42:12.401Z,61.27
2019-02-02T17:52:27.659Z,54.58
2019-02-02T17:57:34.926Z,55.90
2019-02-02T18:02:42.377Z,52.67
2019-02-02T18:07:51.587Z,51.20
2019-02-02T18:12:58.878Z,49.70
2019-02-02T18:18:06.127Z,52.35
2019-02-02T18:23:14.111Z,63.45
2019-02-02T18:28:21.385Z,55.30
2019-02-02T18:33:29.519Z,74.90
2019-02-02T18:38:36.977Z,49.80
2019-02-02T18:43:44.021Z,50.55
2019-02-02T18:48:51.382Z,52.40
2019-02-02T18:59:06.546Z,88.20
2019-02-02T19:04:13.948Z,73.28
2019-02-02T19:09:21.379Z,69.40
2019-02-02T19:19:37.250Z,62.17
2019-02-02T19:24:45.021Z,53.17
2019-02-02T19:29:52.617Z,54.33
2019-02-02T19:35:00.017Z,59.30
2019-02-02T19:40:07.450Z,58.40
2019-02-02T19:50:22.938Z,64.70
2019-02-02T19:55:30.377Z,60.47
2019-02-02T20:05:44.946Z,69.13
2019-02-02T20:10:52.378Z,72.90
2019-02-02T20:21:06.651Z,51.20
2019-02-02T20:26:14.085Z,57.73
2019-02-02T20:36:28.555Z,53.80
2019-02-02T20:41:35.870Z,55.70
2019-02-02T20:46:43.069Z,45.28
2019-02-02T20:51:50.375Z,50.87
2019-02-02T20:56:57.767Z,56.87
2019-02-02T21:02:05.066Z,56.47
2019-02-02T21:07:12.408Z,54.03
2019-02-02T21:12:19.986Z,52.80
2019-02-02T21:17:27.759Z,53.50
2019-02-02T21:22:37.379Z,57.10
2019-02-02T21:27:46.828Z,57.57
2019-02-02T21:32:54.135Z,52.00
2019-02-02T21:38:02.372Z,50.25
2019-02-02T21:43:24.883Z,43.30
2019-02-02T21:48:36.137Z,54.03
2019-02-02T21:53:42.378Z,57.20
2019-02-02T21:58:49.961Z,55.50
2019-02-02T22:03:58.847Z,66.17
2019-02-02T22:09:08.453Z,65.73
2019-02-02T22:14:17.852Z,55.33
2019-02-02T22:19:25.378Z,59.90
2019-02-02T22:24:33.390Z,55.30
2019-02-02T22:29:44.515Z,61.92
2019-02-02T22:34:55.453Z,67.57
2019-02-02T22:40:03.423Z,69.63
2019-02-02T22:45:12.872Z,48.47
2019-02-02T22:50:29.249Z,44.47
2019-02-02T22:55:49.463Z,50.13
2019-02-02T23:01:15.963Z,41.27
